Time;durP1;ratioP1;P1;durP2;ratioP2;P2;SDS_P1;SDS_P2;PMS_P1;PMS_P2;Temp;Humidity;BMP_temperature;BMP_pressure;BME280_temperature;BME280_humidity;BME280_pressure;Samples;Min_cycle;Max_cycle;Signal;HPM_P1;HPM_P2
2022/06/17 00:01:54;;;;;;;2.72;1.33;;;25.60;96.70;;;;;;5037992;28;20057;-85
2022/06/17 00:04:22;;;;;;;2.17;1.42;;;25.50;96.70;;;;;;5039584;28;20502;-84
2022/06/17 00:06:54;;;;;;;3.10;1.40;;;25.40;96.70;;;;;;5044997;28;20041;-85
2022/06/17 00:09:24;;;;;;;3.30;1.13;;;25.50;96.70;;;;;;5042926;28;20045;-84
2022/06/17 00:11:58;;;;;;;3.10;1.38;;;25.40;96.70;;;;;;5037583;28;20414;-85
2022/06/17 00:14:31;;;;;;;3.72;1.42;;;25.40;96.70;;;;;;5025801;28;20099;-85
2022/06/17 00:17:07;;;;;;;4.40;1.80;;;25.30;96.70;;;;;;5050169;28;20048;-85
2022/06/17 00:19:35;;;;;;;2.15;1.40;;;25.30;96.70;;;;;;5054096;28;20045;-83
2022/06/17 00:22:05;;;;;;;4.50;1.42;;;25.40;96.70;;;;;;5044589;28;20033;-86
2022/06/17 00:24:34;;;;;;;3.00;1.50;;;25.30;96.70;;;;;;5020175;28;20041;-85
2022/06/17 00:27:02;;;;;;;1.98;1.15;;;25.30;96.70;;;;;;5049910;28;20498;-84
2022/06/17 00:29:31;;;;;;;3.88;1.55;;;25.10;96.70;;;;;;5041468;28;20056;-85
2022/06/17 00:31:59;;;;;;;5.00;1.45;;;25.00;96.70;;;;;;5039866;28;20048;-85
2022/06/17 00:34:27;;;;;;;5.38;1.73;;;25.00;96.70;;;;;;5038129;28;20056;-84
2022/06/17 00:36:57;;;;;;;4.18;1.15;;;25.00;96.70;;;;;;5035659;28;20045;-86
2022/06/17 00:39:29;;;;;;;4.00;1.40;;;25.10;96.70;;;;;;5036996;28;20110;-84
2022/06/17 00:42:04;;;;;;;3.33;1.30;;;24.90;96.70;;;;;;5035448;28;20214;-84
2022/06/17 00:44:40;;;;;;;5.47;1.42;;;24.90;96.70;;;;;;5041199;28;20515;-84
2022/06/17 00:47:22;;;;;;;2.60;1.33;;;24.70;96.70;;;;;;5042565;28;20051;-85
2022/06/17 00:49:56;;;;;;;3.95;1.45;;;24.90;96.70;;;;;;5041710;28;20061;-84
2022/06/17 00:52:29;;;;;;;3.75;1.60;;;25.00;96.70;;;;;;5037882;28;20067;-85
2022/06/17 00:55:02;;;;;;;2.78;1.40;;;25.20;96.70;;;;;;5044697;28;20053;-83
2022/06/17 00:57:34;;;;;;;2.75;1.25;;;25.00;96.70;;;;;;5038546;28;20047;-85
2022/06/17 01:00:13;;;;;;;2.33;1.65;;;24.80;96.70;;;;;;5036887;28;20056;-85
2022/06/17 01:02:45;;;;;;;3.85;2.10;;;24.80;96.70;;;;;;5038664;28;20667;-85
2022/06/17 01:05:16;;;;;;;4.00;1.67;;;24.80;96.70;;;;;;5037133;28;20049;-85
2022/06/17 01:07:48;;;;;;;2.80;1.40;;;24.80;96.70;;;;;;5039800;28;20061;-85
2022/06/17 01:10:19;;;;;;;4.47;1.75;;;24.80;96.70;;;;;;5035901;28;20042;-85
2022/06/17 01:12:52;;;;;;;2.55;1.88;;;24.70;96.70;;;;;;5037103;28;20057;-85
2022/06/17 01:15:22;;;;;;;3.33;1.30;;;24.60;96.70;;;;;;5044454;28;20517;-85
2022/06/17 01:17:54;;;;;;;5.13;1.83;;;24.60;96.70;;;;;;5041861;28;20126;-84
2022/06/17 01:20:24;;;;;;;4.97;1.60;;;24.70;96.70;;;;;;5039441;28;20103;-84
2022/06/17 01:22:57;;;;;;;3.50;1.50;;;24.70;96.70;;;;;;5022548;28;20156;-85
2022/06/17 01:25:28;;;;;;;4.00;1.40;;;24.70;96.70;;;;;;5034021;28;20060;-85
2022/06/17 01:27:58;;;;;;;3.83;1.60;;;24.60;96.70;;;;;;5039148;28;20083;-85
2022/06/17 01:30:28;;;;;;;2.85;1.40;;;24.50;96.70;;;;;;5033462;28;20258;-84
2022/06/17 01:33:00;;;;;;;1.70;1.15;;;24.50;96.70;;;;;;5030454;28;21098;-84
2022/06/17 01:35:35;;;;;;;4.50;1.75;;;24.40;96.70;;;;;;5037632;28;20059;-85
2022/06/17 01:38:05;;;;;;;4.53;1.73;;;24.30;96.70;;;;;;5034365;28;20132;-85
2022/06/17 01:40:36;;;;;;;3.13;1.45;;;24.30;96.70;;;;;;5031974;28;20049;-84
2022/06/17 01:43:08;;;;;;;3.65;1.23;;;24.30;96.70;;;;;;5034228;28;20048;-84
2022/06/17 01:45:42;;;;;;;2.42;1.45;;;24.30;96.70;;;;;;5036412;28;20144;-85
2022/06/17 01:48:18;;;;;;;2.85;1.55;;;24.30;96.70;;;;;;5042910;28;20060;-84
2022/06/17 01:50:51;;;;;;;2.70;1.20;;;24.20;96.70;;;;;;5052355;28;20083;-85
2022/06/17 01:53:27;;;;;;;3.40;1.40;;;24.10;96.70;;;;;;5041498;28;20060;-85
2022/06/17 01:56:00;;;;;;;4.22;1.48;;;24.00;96.70;;;;;;5042021;28;20154;-85
2022/06/17 01:58:34;;;;;;;2.38;1.33;;;23.90;96.70;;;;;;5024377;28;20623;-85
2022/06/17 02:01:04;;;;;;;2.75;1.35;;;23.80;96.70;;;;;;5042707;28;20411;-84
2022/06/17 02:03:35;;;;;;;2.70;1.50;;;23.90;96.70;;;;;;5041704;28;20049;-84
2022/06/17 02:06:10;;;;;;;3.58;1.30;;;23.90;96.70;;;;;;5023580;28;20054;-84
2022/06/17 02:08:41;;;;;;;;;;;24.00;96.70;;;;;;5032711;28;20053;-85
2022/06/17 02:11:14;;;;;;;4.32;1.85;;;23.90;96.70;;;;;;5038940;28;19924;-84
2022/06/17 02:13:48;;;;;;;1.98;1.67;;;23.90;96.70;;;;;;5039379;28;20141;-84
2022/06/17 02:16:47;;;;;;;;;;;23.80;96.70;;;;;;4991045;28;20092;-84
2022/06/17 02:19:55;;;;;;;2.90;1.40;;;23.70;96.70;;;;;;5021237;28;20074;-85
2022/06/17 02:22:26;;;;;;;4.18;1.67;;;23.70;96.70;;;;;;5021492;28;20045;-84
2022/06/17 02:25:00;;;;;;;2.58;1.52;;;23.70;96.70;;;;;;5023009;28;20136;-85
2022/06/17 02:27:31;;;;;;;3.67;1.60;;;23.80;96.70;;;;;;5019840;28;20073;-84
2022/06/17 02:30:00;;;;;;;4.97;1.48;;;23.60;96.70;;;;;;5007747;28;20057;-85
2022/06/17 02:32:32;;;;;;;2.60;1.63;;;23.70;96.70;;;;;;4988721;28;20057;-84
2022/06/17 02:35:19;;;;;;;4.30;1.92;;;23.70;96.70;;;;;;5000298;28;20470;-85
2022/06/17 02:37:48;;;;;;;2.75;1.40;;;23.70;96.70;;;;;;4969244;28;20061;-85
2022/06/17 02:40:25;;;;;;;2.40;1.60;;;23.60;96.70;;;;;;5000259;28;20062;-83
2022/06/17 02:42:53;;;;;;;1.80;1.15;;;23.50;96.70;;;;;;5002049;28;20053;-85
2022/06/17 02:45:24;;;;;;;3.35;1.40;;;23.70;96.70;;;;;;5010227;28;20050;-84
2022/06/17 02:47:53;;;;;;;2.47;1.58;;;23.70;96.70;;;;;;5008080;28;20388;-84
2022/06/17 02:50:25;;;;;;;2.88;1.48;;;23.80;96.70;;;;;;5014763;28;20348;-85
2022/06/17 02:52:56;;;;;;;5.18;1.58;;;23.90;96.70;;;;;;5017902;28;20127;-84
2022/06/17 02:55:32;;;;;;;3.03;1.38;;;23.70;96.70;;;;;;5016430;28;20586;-85
2022/06/17 02:58:07;;;;;;;4.45;1.60;;;23.50;96.70;;;;;;5013285;28;20049;-85
2022/06/17 03:00:36;;;;;;;4.10;1.30;;;23.30;96.70;;;;;;5010064;28;21010;-84
2022/06/17 03:03:06;;;;;;;1.83;1.20;;;23.30;96.70;;;;;;5022653;28;20056;-84
2022/06/17 03:05:41;;;;;;;2.15;1.45;;;23.30;96.70;;;;;;5009584;28;20059;-83
2022/06/17 03:08:20;;;;;;;3.10;1.52;;;23.40;96.70;;;;;;5014829;28;20053;-85
2022/06/17 03:10:51;;;;;;;2.40;1.52;;;23.30;96.70;;;;;;5007643;28;20050;-85
2022/06/17 03:13:25;;;;;;;2.67;1.58;;;23.30;96.70;;;;;;5024996;28;20049;-85
2022/06/17 03:15:58;;;;;;;2.65;1.45;;;23.30;96.70;;;;;;5019923;28;20091;-86
2022/06/17 03:18:28;;;;;;;2.65;1.27;;;23.40;96.70;;;;;;5021420;28;20563;-85
2022/06/17 03:20:59;;;;;;;3.95;1.50;;;23.40;96.70;;;;;;5017898;28;20045;-85
2022/06/17 03:23:33;;;;;;;1.92;1.42;;;23.40;96.70;;;;;;5017625;28;20045;-84
2022/06/17 03:26:08;;;;;;;3.08;1.50;;;23.50;96.70;;;;;;5017815;28;20054;-84
2022/06/17 03:28:41;;;;;;;2.85;1.30;;;23.40;96.70;;;;;;5026072;28;20067;-84
2022/06/17 03:31:13;;;;;;;9.30;1.70;;;23.50;96.70;;;;;;5035324;28;20049;-85
2022/06/17 03:33:52;;;;;;;2.35;1.58;;;23.30;96.70;;;;;;5043424;28;20055;-85
2022/06/17 03:36:31;;;;;;;3.15;1.30;;;23.30;96.70;;;;;;5038075;28;20049;-81
2022/06/17 03:39:03;;;;;;;3.63;1.50;;;23.40;96.70;;;;;;5037076;28;20056;-82
2022/06/17 03:41:40;;;;;;;4.20;1.73;;;23.40;96.70;;;;;;5036036;28;20041;-82
2022/06/17 03:44:12;;;;;;;2.72;1.92;;;23.40;96.70;;;;;;5030014;28;20140;-81
2022/06/17 03:46:46;;;;;;;2.78;1.75;;;23.30;96.70;;;;;;5023997;28;20102;-82
2022/06/17 03:49:19;;;;;;;3.28;1.50;;;23.30;96.70;;;;;;5045796;28;20051;-81
2022/06/17 03:51:54;;;;;;;2.97;1.50;;;23.20;96.70;;;;;;5043024;28;20155;-82
2022/06/17 03:54:22;;;;;;;2.80;1.65;;;23.30;96.70;;;;;;5033022;28;20044;-82
2022/06/17 03:56:53;;;;;;;4.45;1.88;;;23.20;96.70;;;;;;5041663;28;20067;-82
2022/06/17 03:59:26;;;;;;;3.85;1.95;;;23.20;96.70;;;;;;5038793;28;20143;-82
2022/06/17 04:02:03;;;;;;;3.63;1.50;;;23.20;96.70;;;;;;5028035;28;20106;-82
2022/06/17 04:04:34;;;;;;;3.20;1.50;;;23.30;96.70;;;;;;5031764;28;20052;-82
2022/06/17 04:07:04;;;;;;;4.50;1.42;;;23.30;96.70;;;;;;5044044;28;20047;-82
2022/06/17 04:09:39;;;;;;;4.28;1.73;;;23.30;96.70;;;;;;5042381;28;20052;-82
2022/06/17 04:12:20;;;;;;;5.03;1.88;;;23.20;96.70;;;;;;5041469;28;20114;-82
2022/06/17 04:15:01;;;;;;;2.42;1.63;;;23.30;96.70;;;;;;5040807;28;20044;-81
2022/06/17 04:17:36;;;;;;;3.35;1.77;;;23.30;96.70;;;;;;5035505;28;20052;-81
2022/06/17 04:20:29;;;;;;;6.18;2.20;;;23.20;96.70;;;;;;5036538;28;20514;-82
2022/06/17 04:23:02;;;;;;;6.18;2.10;;;23.20;96.70;;;;;;5050198;28;20059;-81
2022/06/17 04:26:02;;;;;;;3.95;2.25;;;23.20;96.70;;;;;;4993834;28;20050;-84
2022/06/17 04:28:38;;;;;;;5.68;2.15;;;23.30;96.70;;;;;;5045125;28;20105;-77
2022/06/17 04:31:13;;;;;;;3.50;1.60;;;23.30;96.70;;;;;;5068171;28;20040;-83
2022/06/17 04:33:45;;;;;;;3.78;1.88;;;23.40;96.70;;;;;;5046213;28;20044;-83
2022/06/17 04:36:20;;;;;;;3.53;2.13;;;23.30;96.70;;;;;;5046110;28;20048;-82
2022/06/17 04:38:54;;;;;;;4.45;1.77;;;23.30;96.70;;;;;;5040889;28;20048;-83
2022/06/17 04:41:43;;;;;;;3.17;1.60;;;23.50;96.70;;;;;;5068308;28;20053;-83
2022/06/17 04:44:19;;;;;;;5.68;2.03;;;23.40;96.70;;;;;;5045272;28;20101;-83
2022/06/17 04:46:50;;;;;;;3.58;1.70;;;23.50;96.70;;;;;;5050920;28;20049;-83
2022/06/17 04:49:32;;;;;;;3.83;2.10;;;23.40;96.70;;;;;;5048797;28;20102;-84
2022/06/17 04:52:03;;;;;;;4.78;2.63;;;23.40;96.70;;;;;;5044672;28;20056;-83
2022/06/17 04:54:33;;;;;;;5.25;2.00;;;23.40;96.70;;;;;;5041631;28;20044;-83
2022/06/17 04:57:18;;;;;;;4.97;2.30;;;23.40;96.70;;;;;;5048280;28;20524;-83
2022/06/17 05:00:06;;;;;;;7.38;2.83;;;23.40;96.70;;;;;;5048256;28;20048;-83
2022/06/17 05:02:42;;;;;;;4.00;1.70;;;23.40;96.70;;;;;;5043834;28;20052;-83
2022/06/17 05:05:36;;;;;;;5.40;2.10;;;23.50;96.70;;;;;;5071557;28;20067;-82
2022/06/17 05:08:14;;;;;;;3.88;1.90;;;23.50;96.70;;;;;;5043881;28;20044;-83
2022/06/17 05:10:49;;;;;;;3.65;2.10;;;23.50;96.70;;;;;;5043794;28;20102;-83
2022/06/17 05:13:22;;;;;;;6.28;2.38;;;23.50;96.70;;;;;;5029007;28;20083;-83
2022/06/17 05:15:53;;;;;;;4.47;2.08;;;23.60;96.70;;;;;;5064308;28;20048;-83
2022/06/17 05:18:22;;;;;;;4.65;2.05;;;23.50;96.70;;;;;;5047271;28;20048;-83
2022/06/17 05:20:59;;;;;;;4.13;1.90;;;23.50;96.70;;;;;;5042356;28;20045;-83
2022/06/17 05:23:27;;;;;;;3.00;2.13;;;23.60;96.70;;;;;;5053162;28;20052;-83
2022/06/17 05:25:55;;;;;;;4.50;2.17;;;23.70;96.70;;;;;;5046935;28;20037;-83
2022/06/17 05:28:25;;;;;;;4.35;2.10;;;23.80;96.70;;;;;;5036699;28;20056;-83
2022/06/17 05:31:03;;;;;;;4.65;2.10;;;23.90;96.70;;;;;;5037061;28;20102;-83
2022/06/17 05:33:40;;;;;;;3.95;2.10;;;23.90;96.70;;;;;;5053289;28;20067;-83
2022/06/17 05:36:09;;;;;;;3.20;1.98;;;23.90;96.70;;;;;;5045384;28;20056;-82
2022/06/17 05:38:37;;;;;;;5.45;2.80;;;23.90;96.70;;;;;;5041598;28;20048;-83
2022/06/17 05:41:09;;;;;;;6.53;3.70;;;23.90;96.70;;;;;;5040973;28;20079;-83
2022/06/17 05:43:39;;;;;;;6.82;3.78;;;23.90;96.70;;;;;;5060294;28;20448;-83
2022/06/17 05:46:16;;;;;;;7.75;3.03;;;24.00;96.70;;;;;;5050795;28;20102;-83
2022/06/17 05:48:56;;;;;;;6.40;2.92;;;24.00;96.70;;;;;;5045592;28;20044;-83
2022/06/17 05:51:36;;;;;;;7.75;2.80;;;24.20;96.70;;;;;;5051073;28;20044;-83
2022/06/17 05:54:09;;;;;;;5.72;2.47;;;24.30;96.70;;;;;;5053605;28;20041;-83
2022/06/17 05:56:44;;;;;;;5.38;2.67;;;24.20;96.70;;;;;;5055013;28;20040;-83
2022/06/17 05:59:13;;;;;;;6.85;2.67;;;24.20;96.70;;;;;;5045551;28;20067;-83
2022/06/17 06:01:43;;;;;;;6.50;2.70;;;24.30;96.70;;;;;;5063610;28;20060;-83
2022/06/17 06:04:21;;;;;;;3.83;3.03;;;24.30;96.70;;;;;;5046249;28;20086;-83
2022/06/17 06:06:51;;;;;;;6.45;3.00;;;24.20;96.70;;;;;;5046538;28;20052;-83
2022/06/17 06:09:19;;;;;;;6.03;2.72;;;24.30;96.70;;;;;;5045056;28;20048;-83
2022/06/17 06:11:47;;;;;;;8.68;2.58;;;24.30;96.70;;;;;;5056480;28;20071;-82
2022/06/17 06:14:17;;;;;;;5.38;2.80;;;24.30;96.70;;;;;;5038268;28;20147;-83
2022/06/17 06:16:46;;;;;;;4.68;2.50;;;24.40;96.70;;;;;;5045000;28;20117;-84
2022/06/17 06:19:14;;;;;;;3.85;2.42;;;24.60;96.70;;;;;;5044119;28;20135;-83
2022/06/17 06:21:43;;;;;;;6.10;2.70;;;24.60;96.70;;;;;;5051628;28;20494;-83
2022/06/17 06:24:13;;;;;;;4.47;2.72;;;24.70;96.70;;;;;;5044697;28;20114;-82
2022/06/17 06:26:41;;;;;;;3.53;2.60;;;24.70;96.70;;;;;;5045512;28;20032;-83
2022/06/17 06:29:29;;;;;;;6.30;3.17;;;24.70;96.70;;;;;;5028330;28;20054;-83
2022/06/17 06:31:59;;;;;;;3.85;2.78;;;24.70;96.70;;;;;;5015619;28;20060;-83
2022/06/17 06:34:37;;;;;;;8.50;3.42;;;24.80;96.70;;;;;;5026880;28;20041;-82
2022/06/17 06:37:05;;;;;;;7.38;3.55;;;24.90;96.70;;;;;;5028483;28;20203;-83
2022/06/17 06:39:34;;;;;;;6.75;3.03;;;25.00;96.70;;;;;;5036755;28;20075;-80
2022/06/17 06:42:02;;;;;;;6.47;3.40;;;25.00;96.70;;;;;;5028353;28;20045;-84
2022/06/17 06:44:32;;;;;;;5.13;2.80;;;25.20;96.70;;;;;;5015533;28;20056;-83
2022/06/17 06:47:06;;;;;;;5.35;2.88;;;25.30;96.70;;;;;;5019701;28;20192;-81
2022/06/17 06:49:47;;;;;;;4.05;2.70;;;25.30;96.70;;;;;;5043664;28;20534;-80
2022/06/17 06:52:16;;;;;;;4.60;2.90;;;25.30;96.70;;;;;;5000205;28;20061;-85
2022/06/17 06:54:45;;;;;;;5.13;3.05;;;25.40;96.70;;;;;;5022413;28;20103;-84
2022/06/17 06:57:16;;;;;;;6.10;3.03;;;25.40;96.70;;;;;;5020793;28;20137;-85
2022/06/17 07:00:05;;;;;;;8.35;3.00;;;25.60;96.70;;;;;;5012014;28;20045;-77
2022/06/17 07:02:35;;;;;;;5.57;2.85;;;25.60;96.70;;;;;;5030242;28;20450;-82
2022/06/17 07:05:03;;;;;;;5.28;2.17;;;25.70;96.70;;;;;;5025827;28;20088;-82
2022/06/17 07:07:39;;;;;;;5.72;2.80;;;25.80;96.70;;;;;;5022442;28;20156;-83
2022/06/17 07:10:08;;;;;;;10.95;2.97;;;26.00;96.70;;;;;;5024459;28;20037;-78
2022/06/17 07:12:37;;;;;;;6.30;2.80;;;26.00;96.70;;;;;;5041163;28;20454;-83
2022/06/17 07:15:06;;;;;;;5.60;3.10;;;26.10;96.70;;;;;;5026953;28;20066;-82
2022/06/17 07:17:38;;;;;;;4.80;2.40;;;26.10;96.70;;;;;;5022546;28;20045;-83
2022/06/17 07:20:09;;;;;;;8.23;3.13;;;26.20;96.70;;;;;;5026044;28;20041;-82
2022/06/17 07:22:38;;;;;;;5.53;2.60;;;26.10;96.70;;;;;;5000838;28;20053;-81
2022/06/17 07:25:08;;;;;;;6.55;2.90;;;26.20;96.70;;;;;;5001893;28;20457;-83
2022/06/17 07:27:36;;;;;;;8.25;2.63;;;26.30;96.70;;;;;;5030507;28;20052;-83
2022/06/17 07:30:05;;;;;;;7.07;2.70;;;26.40;96.70;;;;;;5042961;28;20521;-82
2022/06/17 07:32:33;;;;;;;6.95;3.10;;;26.50;96.70;;;;;;5042307;28;20044;-82
2022/06/17 07:35:04;;;;;;;4.32;2.50;;;26.40;96.70;;;;;;5042466;28;20052;-81
2022/06/17 07:40:18;;;;;;;;;;;26.50;96.70;;;;;;5035799;28;20403;-83
2022/06/17 07:42:46;;;;;;;5.30;2.55;;;26.60;96.70;;;;;;5050811;28;20526;-80
2022/06/17 07:45:17;;;;;;;5.32;2.20;;;26.70;96.70;;;;;;5043893;28;20547;-82
2022/06/17 07:47:48;;;;;;;9.43;2.35;;;26.70;96.70;;;;;;5043741;28;20133;-84
2022/06/17 07:50:27;;;;;;;4.40;2.05;;;26.80;96.70;;;;;;5031673;28;20091;-82
2022/06/17 07:52:55;;;;;;;3.83;1.90;;;27.00;96.70;;;;;;5042857;28;20908;-80
2022/06/17 07:55:23;;;;;;;5.57;1.60;;;27.10;96.70;;;;;;5039803;28;20498;-81
2022/06/17 07:57:52;;;;;;;5.60;1.90;;;27.20;96.70;;;;;;5044234;28;20498;-82
2022/06/17 08:00:23;;;;;;;4.63;1.90;;;27.20;96.70;;;;;;5040377;28;20049;-81
2022/06/17 08:02:51;;;;;;;6.60;2.38;;;27.20;96.70;;;;;;5027426;28;20111;-78
2022/06/17 08:05:21;;;;;;;3.65;1.90;;;27.20;96.70;;;;;;5041643;28;20132;-81
2022/06/17 08:07:50;;;;;;;4.22;1.75;;;27.30;96.70;;;;;;5044970;28;20052;-81
2022/06/17 08:10:21;;;;;;;3.17;1.80;;;27.40;96.70;;;;;;5041962;28;20515;-80
2022/06/17 08:12:49;;;;;;;2.67;1.30;;;27.50;96.70;;;;;;5049797;28;20047;-81
2022/06/17 08:15:18;;;;;;;2.83;1.60;;;27.60;96.70;;;;;;5045031;28;20679;-80
2022/06/17 08:17:47;;;;;;;4.60;1.80;;;27.60;96.70;;;;;;5040975;28;20136;-82
2022/06/17 08:20:18;;;;;;;3.20;1.83;;;27.70;96.70;;;;;;5027099;28;20037;-82
2022/06/17 08:22:48;;;;;;;4.60;1.95;;;27.70;96.70;;;;;;5041514;28;20045;-83
2022/06/17 08:25:16;;;;;;;6.43;1.80;;;27.80;96.70;;;;;;5035033;28;20041;-82
2022/06/17 08:27:46;;;;;;;8.27;1.88;;;27.80;96.70;;;;;;5040932;28;20041;-83
2022/06/17 08:30:16;;;;;;;5.05;1.80;;;27.80;96.70;;;;;;5023599;28;20148;-81
2022/06/17 08:32:45;;;;;;;3.25;1.67;;;27.90;96.70;;;;;;5019905;28;20073;-82
2022/06/17 08:35:14;;;;;;;5.38;2.00;;;27.90;96.70;;;;;;5010796;28;20056;-82
2022/06/17 08:37:42;;;;;;;4.40;1.95;;;27.90;96.70;;;;;;5020825;28;20042;-83
2022/06/17 08:40:35;;;;;;;6.22;1.70;;;27.90;96.70;;;;;;5017332;28;20118;-82
2022/06/17 08:43:30;;;;;;;5.88;1.60;;;28.00;96.70;;;;;;5001540;28;20100;-83
2022/06/17 08:46:11;;;;;;;5.38;1.88;;;28.20;96.70;;;;;;5012180;28;20140;-82
2022/06/17 08:48:58;;;;;;;3.40;1.73;;;28.40;96.70;;;;;;5020886;28;20577;-83
2022/06/17 08:51:41;;;;;;;4.15;1.88;;;28.60;96.70;;;;;;5011967;28;20037;-82
2022/06/17 08:54:30;;;;;;;3.35;1.50;;;28.80;96.70;;;;;;5024160;28;20049;-84
2022/06/17 08:57:07;;;;;;;4.50;1.92;;;28.90;96.70;;;;;;5013937;28;20061;-82
2022/06/17 08:59:57;;;;;;;3.58;1.95;;;29.10;96.70;;;;;;5024947;28;20107;-82
2022/06/17 09:02:36;;;;;;;3.65;1.70;;;29.00;96.70;;;;;;5022248;28;20572;-82
2022/06/17 09:05:17;;;;;;;6.05;1.90;;;28.90;96.70;;;;;;5024869;28;20041;-83
2022/06/17 09:07:56;;;;;;;5.35;2.42;;;29.00;96.70;;;;;;5027628;28;20056;-82
2022/06/17 09:10:38;;;;;;;4.32;1.90;;;29.20;96.70;;;;;;5029312;28;20489;-82
2022/06/17 09:13:20;;;;;;;5.03;2.10;;;29.30;96.70;;;;;;5023598;28;20076;-82
2022/06/17 09:15:57;;;;;;;4.45;2.00;;;29.40;96.70;;;;;;5002928;28;20533;-78
2022/06/17 09:18:29;;;;;;;10.40;2.25;;;29.40;96.70;;;;;;5027501;28;20053;-81
2022/06/17 09:21:04;;;;;;;6.55;2.10;;;29.40;96.70;;;;;;5025529;28;20050;-84
2022/06/17 09:27:23;;;;;;;3.88;2.45;;;29.60;96.70;;;;;;4946654;28;20106;-87
2022/06/17 09:29:58;;;;;;;5.65;2.17;;;29.60;96.70;;;;;;4947950;28;20043;-82
2022/06/17 09:32:31;;;;;;;10.10;2.60;;;29.60;96.70;;;;;;4946872;28;20042;-85
2022/06/17 09:35:05;;;;;;;3.33;2.20;;;29.70;96.70;;;;;;4964019;28;20046;-85
2022/06/17 09:37:38;;;;;;;8.35;2.47;;;29.70;96.70;;;;;;4947432;28;20066;-86
2022/06/17 09:40:13;;;;;;;4.00;2.28;;;29.70;96.70;;;;;;4946693;28;20044;-85
2022/06/17 09:42:46;;;;;;;8.70;2.45;;;29.90;96.70;;;;;;4962456;28;20527;-85
2022/06/17 09:45:25;;;;;;;4.88;2.25;;;29.90;96.70;;;;;;4962897;28;20094;-86
2022/06/17 09:48:01;;;;;;;3.88;2.15;;;30.10;96.70;;;;;;4953540;28;20078;-85
2022/06/17 09:50:35;;;;;;;3.78;2.08;;;30.20;96.70;;;;;;4957951;28;20051;-85
2022/06/17 09:53:10;;;;;;;7.22;2.22;;;30.30;96.70;;;;;;4947415;28;20066;-86
2022/06/17 09:55:43;;;;;;;5.20;2.45;;;30.30;96.70;;;;;;4945625;28;20504;-82
2022/06/17 09:58:21;;;;;;;5.03;2.03;;;30.40;96.70;;;;;;4948427;28;20054;-82
2022/06/17 10:00:53;;;;;;;3.50;2.22;;;30.50;96.70;;;;;;4964996;28;20563;-86
2022/06/17 10:03:23;;;;;;;3.55;2.00;;;30.40;96.70;;;;;;4961933;28;20635;-84
2022/06/17 10:06:02;;;;;;;5.97;2.50;;;30.60;96.70;;;;;;4946457;28;20051;-85
2022/06/17 10:08:45;;;;;;;5.35;2.40;;;30.60;96.70;;;;;;4943389;29;20051;-86
2022/06/17 10:11:16;;;;;;;3.67;2.20;;;30.60;96.70;;;;;;4967651;28;20548;-86
2022/06/17 10:13:58;;;;;;;4.65;2.00;;;30.70;96.70;;;;;;4950408;28;20077;-86
2022/06/17 10:19:37;;;;;;;4.55;2.38;;;31.10;96.70;;;;;;4950998;28;20059;-86
2022/06/17 10:22:20;;;;;;;5.78;2.53;;;31.60;96.70;;;;;;4950892;28;20048;-87
2022/06/17 10:25:03;;;;;;;4.80;2.28;;;31.70;96.70;;;;;;4967270;28;20460;-85
2022/06/17 10:27:45;;;;;;;4.22;2.30;;;31.60;96.70;;;;;;4966059;28;20059;-85
2022/06/17 10:30:29;;;;;;;3.97;2.00;;;31.80;96.70;;;;;;4965819;28;20049;-85
2022/06/17 10:32:59;;;;;;;7.85;2.47;;;31.90;96.70;;;;;;4972548;28;20504;-85
2022/06/17 10:35:30;;;;;;;5.18;2.28;;;32.00;96.70;;;;;;4973141;28;20055;-85
2022/06/17 10:38:01;;;;;;;7.10;2.60;;;31.90;96.70;;;;;;4952548;28;20050;-85
2022/06/17 10:40:34;;;;;;;6.82;2.70;;;32.00;96.70;;;;;;4976766;28;20108;-84
2022/06/17 10:43:06;;;;;;;5.70;2.63;;;32.40;96.70;;;;;;4967309;28;20648;-85
2022/06/17 10:45:35;;;;;;;3.70;2.60;;;32.40;96.70;;;;;;4952277;28;20057;-85
2022/06/17 10:48:13;;;;;;;5.72;2.20;;;32.60;96.70;;;;;;4968080;28;20038;-85
2022/06/17 10:50:41;;;;;;;8.23;2.45;;;32.60;96.20;;;;;;4976310;28;20087;-85
2022/06/17 10:53:16;;;;;;;5.30;2.22;;;32.50;95.90;;;;;;4952294;28;20508;-85
2022/06/17 10:55:47;;;;;;;7.90;2.50;;;32.60;96.70;;;;;;4967017;28;20039;-85
2022/06/17 10:58:22;;;;;;;2.65;2.13;;;32.70;96.70;;;;;;4953065;28;20082;-85
2022/06/17 11:00:57;;;;;;;7.13;2.53;;;32.70;96.70;;;;;;4970224;28;20422;-85
2022/06/17 11:03:30;;;;;;;4.50;2.67;;;32.80;96.50;;;;;;4968237;28;20055;-86
2022/06/17 11:06:06;;;;;;;6.15;2.63;;;33.00;96.20;;;;;;4953626;28;20086;-85
2022/06/17 11:08:39;;;;;;;4.38;2.72;;;33.10;95.70;;;;;;4969486;28;20554;-85
2022/06/17 11:14:00;;;;;;;5.45;2.70;;;33.10;95.60;;;;;;4966894;28;20054;-85
2022/06/17 11:16:36;;;;;;;4.00;2.55;;;33.00;96.00;;;;;;4968384;28;20050;-85
2022/06/17 11:19:14;;;;;;;3.63;2.75;;;32.80;95.40;;;;;;4951679;28;20058;-85
2022/06/17 11:21:46;;;;;;;7.72;2.50;;;32.80;95.90;;;;;;4967588;28;20499;-84
2022/06/17 11:24:21;;;;;;;5.20;3.15;;;33.00;96.10;;;;;;4951037;28;20126;-84
2022/06/17 11:27:05;;;;;;;4.40;3.22;;;33.00;95.60;;;;;;4967617;28;20059;-85
2022/06/17 11:29:39;;;;;;;6.38;3.30;;;33.10;95.30;;;;;;4965673;28;20046;-85
2022/06/17 11:32:31;;;;;;;4.32;2.63;;;33.10;95.60;;;;;;4952734;28;20054;-85
2022/06/17 11:35:16;;;;;;;5.13;3.13;;;33.20;96.30;;;;;;4949936;28;20070;-85
2022/06/17 11:37:47;;;;;;;7.35;3.60;;;33.20;96.70;;;;;;4967493;28;20066;-85
2022/06/17 11:40:17;;;;;;;5.28;3.63;;;33.30;95.60;;;;;;4953489;28;20046;-85
2022/06/17 11:42:51;;;;;;;4.85;3.60;;;33.60;95.90;;;;;;4967987;28;20078;-86
2022/06/17 11:45:22;;;;;;;5.70;3.53;;;33.80;94.70;;;;;;4951307;28;20050;-85
2022/06/17 11:47:57;;;;;;;7.05;3.72;;;33.90;94.40;;;;;;4971266;28;20075;-86
2022/06/17 11:50:31;;;;;;;7.80;3.55;;;34.00;94.60;;;;;;4968305;28;20452;-86
2022/06/17 11:53:07;;;;;;;3.95;3.30;;;34.20;94.40;;;;;;4968372;28;20051;-85
2022/06/17 11:55:42;;;;;;;4.20;3.58;;;34.10;93.60;;;;;;4968566;28;20517;-85
2022/06/17 11:58:33;;;;;;;4.50;3.55;;;34.10;94.00;;;;;;4966307;28;20050;-85
2022/06/17 12:01:13;;;;;;;7.18;4.75;;;34.20;94.40;;;;;;4952924;28;20055;-85
2022/06/17 12:03:44;;;;;;;6.15;4.10;;;34.30;93.80;;;;;;4966103;28;20043;-85
2022/06/17 12:06:27;;;;;;;4.88;4.03;;;34.40;93.10;;;;;;4965667;28;20046;-85
2022/06/17 12:09:01;;;;;;;6.43;3.88;;;34.40;93.30;;;;;;4966584;28;20050;-85
2022/06/17 12:11:43;;;;;;;6.43;4.30;;;34.40;93.50;;;;;;4951434;28;20401;-85
2022/06/17 12:14:18;;;;;;;11.45;4.32;;;34.60;93.50;;;;;;4971808;28;20046;-86
2022/06/17 12:16:48;;;;;;;7.45;5.03;;;34.60;93.70;;;;;;4935135;28;20062;-85
2022/06/17 12:19:36;;;;;;;6.53;4.75;;;34.80;93.90;;;;;;4967541;28;20051;-86
2022/06/17 12:22:10;;;;;;;7.28;5.10;;;35.20;92.80;;;;;;4967871;28;20035;-85
2022/06/17 12:24:44;;;;;;;5.65;5.05;;;35.30;92.20;;;;;;4973045;28;20459;-85
2022/06/17 12:27:22;;;;;;;6.80;5.50;;;35.50;92.20;;;;;;4956405;28;20042;-85
2022/06/17 12:30:13;;;;;;;8.23;4.72;;;35.50;91.50;;;;;;4963443;28;20047;-84
2022/06/17 12:32:47;;;;;;;7.22;5.25;;;35.60;91.40;;;;;;4947207;28;20058;-85
2022/06/17 12:35:22;;;;;;;6.65;4.60;;;35.60;91.10;;;;;;4972663;28;20484;-84
2022/06/17 12:37:57;;;;;;;7.43;4.93;;;35.50;91.30;;;;;;4950711;28;20229;-83
2022/06/17 12:40:41;;;;;;;12.23;5.57;;;35.80;92.20;;;;;;4951781;28;20559;-85
2022/06/17 12:43:17;;;;;;;8.57;5.18;;;36.00;90.90;;;;;;4967973;28;20050;-85
2022/06/17 12:45:51;;;;;;;5.60;4.95;;;35.90;90.60;;;;;;4965682;28;20542;-84
2022/06/17 12:48:27;;;;;;;7.07;5.45;;;35.90;90.40;;;;;;4952485;28;20105;-85
2022/06/17 12:54:00;;;;;;;6.93;5.30;;;36.10;89.90;;;;;;4950942;28;20079;-84
2022/06/17 12:56:39;;;;;;;6.80;5.15;;;36.20;90.90;;;;;;4968419;28;20034;-85
2022/06/17 12:59:31;;;;;;;7.32;5.38;;;36.30;89.40;;;;;;4965434;28;20461;-85
2022/06/17 13:02:07;;;;;;;7.72;5.40;;;36.10;89.70;;;;;;4964853;28;20153;-86
2022/06/17 13:05:03;;;;;;;8.02;5.95;;;36.20;90.10;;;;;;4967326;28;20039;-85
2022/06/17 13:07:40;;;;;;;6.13;5.53;;;36.40;89.20;;;;;;4945640;28;20050;-85
2022/06/17 13:13:10;;;;;;;6.35;5.75;;;36.70;89.50;;;;;;4967231;28;20046;-85
2022/06/17 13:15:44;;;;;;;7.85;5.30;;;37.20;88.70;;;;;;4964630;28;20054;-85
2022/06/17 13:18:19;;;;;;;8.45;5.15;;;37.10;88.50;;;;;;4975691;28;20093;-85
2022/06/17 13:20:49;;;;;;;;;;;37.20;88.40;;;;;;4965335;28;20134;-85
2022/06/17 13:23:24;;;;;;;10.23;5.57;;;37.40;88.50;;;;;;4954926;28;19926;-85
2022/06/17 13:26:00;;;;;;;10.23;5.38;;;37.30;87.40;;;;;;4950198;28;20069;-84
2022/06/17 13:28:37;;;;;;;6.28;5.38;;;36.60;88.90;;;;;;4945535;28;20059;-85
2022/06/17 13:31:12;;;;;;;7.35;5.43;;;36.50;89.10;;;;;;4963020;28;20420;-85
2022/06/17 13:33:48;;;;;;;7.03;6.32;;;36.70;89.20;;;;;;4961219;28;20864;-85
2022/06/17 13:36:20;;;;;;;9.20;5.95;;;36.80;88.70;;;;;;4966999;28;20512;-85
2022/06/17 13:39:00;;;;;;;9.40;6.07;;;36.90;88.30;;;;;;4949784;28;20101;-84
2022/06/17 13:41:34;;;;;;;8.52;6.55;;;36.90;88.60;;;;;;4964832;28;20505;-84
2022/06/17 13:44:11;;;;;;;6.45;5.78;;;37.20;88.60;;;;;;4966140;28;20134;-85